Time;durP1;ratioP1;P1;durP2;ratioP2;P2;SDS_P1;SDS_P2;PMS_P1;PMS_P2;Temp;Humidity;BMP_temperature;BMP_pressure;BME280_temperature;BME280_humidity;BME280_pressure;Samples;Min_cycle;Max_cycle;Signal;HPM_P1;HPM_P2
2021/10/29 00:00:51;;;;;;;;;;;;;;;20.84;62.43;99906.44;7286608;19;151778;-50
2021/10/29 00:03:19;;;;;;;;;;;;;;;20.85;62.68;99910.03;7289011;19;152918;-50
2021/10/29 00:05:46;;;;;;;;;;;;;;;20.84;62.50;99903.63;7293033;19;153950;-50
2021/10/29 00:08:13;;;;;;;;;;;;;;;20.84;62.59;99895.19;7288729;19;152649;-50
2021/10/29 00:10:41;;;;;;;;;;;;;;;20.86;63.07;99889.22;7283458;19;153478;-50
2021/10/29 00:13:07;;;;;;;;;;;;;;;20.86;63.33;99883.63;7286726;19;151902;-50
2021/10/29 00:15:35;;;;;;;;;;;;;;;20.86;63.33;99878.81;7286824;19;153033;-50
2021/10/29 00:18:02;;;;;;;;;;;;;;;20.88;63.03;99872.06;7285752;19;153878;-50
2021/10/29 00:20:30;;;;;;;;;;;;;;;20.88;63.39;99864.47;7287497;19;151513;-50
2021/10/29 00:22:56;;;;;;;;;;;;;;;20.87;63.42;99862.81;7286818;19;153250;-50
2021/10/29 00:25:23;;;;;;;;;;;;;;;20.87;63.38;99854.38;7285054;19;153831;-50
2021/10/29 00:27:50;;;;;;;;;;;;;;;20.88;63.49;99850.41;7293642;19;151758;-50
2021/10/29 00:30:17;;;;;;;;;;;;;;;20.86;63.09;99842.31;7286069;19;153260;-50
2021/10/29 00:32:44;;;;;;;;;;;;;;;20.85;63.53;99840.66;7286862;19;151695;-50
2021/10/29 00:35:10;;;;;;;;;;;;;;;20.88;63.51;99846.78;7286994;19;152855;-50
2021/10/29 00:37:38;;;;;;;;;;;;;;;20.86;63.49;99850.75;7283909;19;153947;-51
2021/10/29 00:40:06;;;;;;;;;;;;;;;20.85;63.59;99840.66;7287684;19;151719;-50
2021/10/29 00:42:33;;;;;;;;;;;;;;;20.85;63.81;99846.28;7286089;19;152754;-50
2021/10/29 00:45:00;;;;;;;;;;;;;;;20.85;63.69;99832.25;7286798;19;153494;-50
2021/10/29 00:47:26;;;;;;;;;;;;;;;20.85;63.50;99823.00;7294670;19;152094;-50
2021/10/29 00:49:53;;;;;;;;;;;;;;;20.84;63.50;99822.19;7284457;19;151856;-51
2021/10/29 00:52:20;;;;;;;;;;;;;;;20.84;64.01;99822.19;7287400;19;151794;-51
2021/10/29 00:54:47;;;;;;;;;;;;;;;20.82;63.94;99818.91;7286697;19;151749;-50
2021/10/29 00:57:13;;;;;;;;;;;;;;;20.81;63.96;99808.81;7285100;19;153501;-50
2021/10/29 00:59:40;;;;;;;;;;;;;;;20.81;64.02;99800.41;7286110;19;152075;-50
2021/10/29 01:02:07;;;;;;;;;;;;;;;20.81;64.20;99796.75;7287864;19;153279;-51
2021/10/29 01:04:34;;;;;;;;;;;;;;;20.81;63.97;99799.56;7285874;19;153476;-51
2021/10/29 01:07:01;;;;;;;;;;;;;;;20.77;64.28;99795.78;7287588;19;151812;-51
2021/10/29 01:09:28;;;;;;;;;;;;;;;20.77;64.37;99790.19;7291875;19;153122;-51
2021/10/29 01:11:55;;;;;;;;;;;;;;;20.76;64.55;99794.16;7285165;19;152377;-50
2021/10/29 01:14:21;;;;;;;;;;;;;;;20.74;64.26;99805.72;7286259;19;153203;-50
2021/10/29 01:16:48;;;;;;;;;;;;;;;20.74;64.27;99797.31;7285942;19;153765;-50
2021/10/29 01:19:15;;;;;;;;;;;;;;;20.73;64.40;99797.63;7285794;19;151846;-50
2021/10/29 01:21:42;;;;;;;;;;;;;;;20.72;64.56;99790.38;7286419;19;153708;-50
2021/10/29 01:24:09;;;;;;;;;;;;;;;20.68;64.56;99792.22;7285647;19;154189;-50
2021/10/29 01:26:36;;;;;;;;;;;;;;;20.67;64.09;99791.38;7283961;19;152476;-50
2021/10/29 01:29:03;;;;;;;;;;;;;;;20.69;63.96;99796.66;7284881;19;153046;-49
2021/10/29 01:31:30;;;;;;;;;;;;;;;20.66;64.16;99809.41;7290542;19;154023;-50
2021/10/29 01:33:57;;;;;;;;;;;;;;;20.64;64.56;99791.25;7285180;19;153834;-50
2021/10/29 01:36:23;;;;;;;;;;;;;;;20.64;64.25;99789.25;7285397;19;154545;-49
2021/10/29 01:38:54;;;;;;;;;;;;;;;20.63;64.43;99795.19;7286172;19;152455;-50
2021/10/29 01:41:20;;;;;;;;;;;;;;;20.62;64.23;99788.78;7285038;19;152999;-50
2021/10/29 01:43:48;;;;;;;;;;;;;;;20.59;64.18;99786.63;7285287;19;153443;-50
2021/10/29 01:46:15;;;;;;;;;;;;;;;20.58;64.51;99787.00;7285074;19;151782;-50
2021/10/29 01:48:44;;;;;;;;;;;;;;;20.56;64.91;99784.53;7284135;19;152836;-50
2021/10/29 01:51:11;;;;;;;;;;;;;;;20.54;64.66;99772.78;7279524;19;153766;-50
2021/10/29 01:53:37;;;;;;;;;;;;;;;20.55;64.54;99774.44;7292325;19;151868;-49
2021/10/29 01:56:05;;;;;;;;;;;;;;;20.53;64.92;99771.16;7284371;19;154245;-50
2021/10/29 01:58:32;;;;;;;;;;;;;;;20.54;64.73;99775.59;7283907;19;152036;-50
2021/10/29 02:00:59;;;;;;;;;;;;;;;20.53;64.47;99771.16;7282596;19;151769;-50
2021/10/29 02:03:27;;;;;;;;;;;;;;;20.54;64.67;99764.38;7281643;19;152862;-50
2021/10/29 02:05:53;;;;;;;;;;;;;;;20.51;64.57;99765.06;7284140;19;151780;-50
2021/10/29 02:08:24;;;;;;;;;;;;;;;20.51;64.99;99767.88;7284964;19;152853;-50
2021/10/29 02:10:51;;;;;;;;;;;;;;;20.53;65.26;99747.91;7281308;19;153454;-51
2021/10/29 02:13:19;;;;;;;;;;;;;;;20.56;64.37;99755.63;7283902;19;152070;-50
2021/10/29 02:15:47;;;;;;;;;;;;;;;20.56;64.89;99752.81;7289197;19;152813;-50
2021/10/29 02:18:14;;;;;;;;;;;;;;;20.53;65.07;99750.69;7285377;19;151980;-50
2021/10/29 02:20:41;;;;;;;;;;;;;;;20.50;65.20;99755.00;7283036;19;151799;-50
2021/10/29 02:23:08;;;;;;;;;;;;;;;20.49;65.34;99741.31;7283775;19;154043;-50
2021/10/29 02:25:35;;;;;;;;;;;;;;;20.47;65.42;99747.25;7283687;19;151588;-50
2021/10/29 02:28:01;;;;;;;;;;;;;;;20.47;65.46;99744.44;7284544;19;153092;-50
2021/10/29 02:30:28;;;;;;;;;;;;;;;20.47;65.45;99740.81;7279928;19;154290;-50
2021/10/29 02:32:55;;;;;;;;;;;;;;;20.46;65.56;99734.38;7285458;19;152193;-50
2021/10/29 02:35:22;;;;;;;;;;;;;;;20.44;65.16;99725.50;7285457;19;152894;-50
2021/10/29 02:37:48;;;;;;;;;;;;;;;20.42;65.19;99727.81;7290734;19;151972;-50
2021/10/29 02:40:15;;;;;;;;;;;;;;;20.41;65.46;99721.38;7284999;19;152749;-50
2021/10/29 02:42:42;;;;;;;;;;;;;;;20.42;65.67;99716.59;7282573;19;153390;-50
2021/10/29 02:45:09;;;;;;;;;;;;;;;20.45;65.74;99704.66;7281499;19;152312;-53
2021/10/29 02:47:35;;;;;;;;;;;;;;;20.42;65.84;99697.78;7283903;19;153283;-51
2021/10/29 02:50:03;;;;;;;;;;;;;;;20.41;65.76;99692.47;7282610;19;152305;-50
2021/10/29 02:52:30;;;;;;;;;;;;;;;20.39;65.66;99690.03;7279995;19;151886;-51
2021/10/29 02:54:56;;;;;;;;;;;;;;;20.40;66.04;99676.81;7283986;19;153589;-50
2021/10/29 02:57:23;;;;;;;;;;;;;;;20.40;65.92;99690.84;7290885;19;153702;-50
2021/10/29 02:59:50;;;;;;;;;;;;;;;20.41;66.04;99687.69;7282287;19;153451;-50
2021/10/29 03:02:16;;;;;;;;;;;;;;;20.39;66.38;99692.84;7282691;19;153451;-50
2021/10/29 03:04:43;;;;;;;;;;;;;;;20.37;66.06;99683.09;7282088;19;151853;-50
2021/10/29 03:07:10;;;;;;;;;;;;;;;20.35;66.21;99689.03;7283085;19;152263;-51
2021/10/29 03:09:37;;;;;;;;;;;;;;;20.36;66.13;99687.06;7282429;19;154049;-51
2021/10/29 03:12:04;;;;;;;;;;;;;;;20.35;66.42;99686.22;7281369;19;151888;-50
2021/10/29 03:14:31;;;;;;;;;;;;;;;20.35;66.23;99679.84;7284090;19;153289;-49
2021/10/29 03:16:57;;;;;;;;;;;;;;;20.36;66.49;99678.66;7280297;19;153295;-50
2021/10/29 03:19:24;;;;;;;;;;;;;;;20.34;66.38;99672.56;7290375;19;153130;-50
2021/10/29 03:21:51;;;;;;;;;;;;;;;20.34;66.71;99658.53;7280058;19;153585;-50
2021/10/29 03:24:18;;;;;;;;;;;;;;;20.35;66.54;99668.63;7282418;19;151989;-50
2021/10/29 03:26:44;;;;;;;;;;;;;;;20.35;66.63;99651.78;7283468;19;152738;-50
2021/10/29 03:29:11;;;;;;;;;;;;;;;20.37;66.61;99657.84;7280719;19;152359;-50
2021/10/29 03:31:38;;;;;;;;;;;;;;;20.36;66.92;99661.81;7280944;19;151989;-50
2021/10/29 03:34:05;;;;;;;;;;;;;;;20.36;66.74;99656.19;7280934;19;152663;-50
2021/10/29 03:36:31;;;;;;;;;;;;;;;20.34;67.27;99652.94;7280975;19;153682;-50
2021/10/29 03:39:01;;;;;;;;;;;;;;;20.35;67.26;99660.19;7282920;19;151909;-50
2021/10/29 03:41:32;;;;;;;;;;;;;;;20.33;67.50;99657.72;7285875;19;153735;-51
2021/10/29 03:44:10;;;;;;;;;;;;;;;20.33;67.39;99646.50;7282766;19;151521;-50
2021/10/29 03:46:37;;;;;;;;;;;;;;;20.34;67.38;99641.72;7280511;19;152726;-50
2021/10/29 03:49:17;;;;;;;;;;;;;;;20.31;67.87;99647.97;7281138;19;153777;-50
2021/10/29 03:51:50;;;;;;;;;;;;;;;20.31;67.36;99642.38;7277531;19;151752;-50
2021/10/29 03:59:22;;;;;;;;;;;;;;;20.33;67.59;99652.09;7288653;19;152070;-50
2021/10/29 04:01:48;;;;;;;;;;;;;;;20.32;68.07;99644.03;7285638;19;152846;-50
2021/10/29 04:04:16;;;;;;;;;;;;;;;20.32;67.70;99635.59;7295628;19;154169;-50
2021/10/29 04:06:42;;;;;;;;;;;;;;;20.30;67.90;99635.97;7286470;19;151604;-50
2021/10/29 04:09:09;;;;;;;;;;;;;;;20.29;67.94;99636.25;7286559;19;153258;-51
2021/10/29 04:11:38;;;;;;;;;;;;;;;20.31;68.16;99639.56;7285154;19;151962;-50
2021/10/29 04:14:06;;;;;;;;;;;;;;;20.31;68.11;99636.75;7287756;19;152816;-50
2021/10/29 04:16:36;;;;;;;;;;;;;;;20.29;68.32;99630.66;7285778;19;153362;-49
2021/10/29 04:19:03;;;;;;;;;;;;;;;20.29;68.33;99631.47;7287272;19;154733;-49
2021/10/29 04:21:30;;;;;;;;;;;;;;;20.30;68.55;99632.34;7288590;19;152751;-50
2021/10/29 04:23:57;;;;;;;;;;;;;;;20.30;68.22;99635.13;7286716;19;154173;-50
2021/10/29 04:26:24;;;;;;;;;;;;;;;20.27;68.50;99633.78;7293379;19;151611;-50
2021/10/29 04:28:55;;;;;;;;;;;;;;;20.29;68.37;99628.66;7285609;19;154079;-51
2021/10/29 04:31:25;;;;;;;;;;;;;;;20.29;68.06;99625.88;7286678;19;151903;-50
2021/10/29 04:33:52;;;;;;;;;;;;;;;20.29;68.01;99633.47;7285688;19;153737;-51
2021/10/29 04:36:19;;;;;;;;;;;;;;;20.29;67.85;99628.66;7286335;19;153636;-50
2021/10/29 04:38:46;;;;;;;;;;;;;;;20.29;68.14;99639.06;7287718;19;151795;-51
2021/10/29 04:41:14;;;;;;;;;;;;;;;20.28;67.60;99624.22;7284882;19;153316;-50
2021/10/29 04:43:41;;;;;;;;;;;;;;;20.26;67.94;99620.13;7284973;19;153505;-50
2021/10/29 04:46:08;;;;;;;;;;;;;;;20.25;67.65;99613.69;7294256;19;152065;-50
2021/10/29 04:48:36;;;;;;;;;;;;;;;20.25;67.87;99612.84;7284586;19;153390;-50
2021/10/29 04:51:02;;;;;;;;;;;;;;;20.24;68.25;99602.78;7285266;19;152238;-50
2021/10/29 04:53:29;;;;;;;;;;;;;;;20.27;67.93;99607.72;7287818;19;152713;-50
2021/10/29 04:55:56;;;;;;;;;;;;;;;20.24;67.93;99608.41;7283309;19;154807;-51
2021/10/29 04:58:23;;;;;;;;;;;;;;;20.23;68.34;99606.75;7287641;19;151613;-50
2021/10/29 05:00:50;;;;;;;;;;;;;;;20.22;67.96;99610.72;7285583;19;152859;-49
2021/10/29 05:03:17;;;;;;;;;;;;;;;20.22;68.09;99599.50;7283965;19;152606;-50
2021/10/29 05:05:43;;;;;;;;;;;;;;;20.23;68.40;99603.94;7287036;19;151958;-50
2021/10/29 05:08:14;;;;;;;;;;;;;;;20.21;68.16;99589.47;7291222;19;152719;-50
2021/10/29 05:10:41;;;;;;;;;;;;;;;20.22;68.50;99605.09;7287474;19;151782;-50
2021/10/29 05:13:07;;;;;;;;;;;;;;;20.20;68.49;99585.84;7284793;19;152621;-50
2021/10/29 05:15:34;;;;;;;;;;;;;;;20.19;68.18;99589.78;7284824;19;153822;-50
2021/10/29 05:18:02;;;;;;;;;;;;;;;20.19;68.58;99597.38;7286833;19;152118;-50
2021/10/29 05:20:29;;;;;;;;;;;;;;;20.19;68.35;99600.19;7283868;19;152432;-51
2021/10/29 05:22:56;;;;;;;;;;;;;;;20.20;68.58;99591.44;7283320;19;153944;-50
2021/10/29 05:25:23;;;;;;;;;;;;;;;20.18;68.58;99588.13;7284120;19;152466;-51
2021/10/29 05:27:49;;;;;;;;;;;;;;;20.18;68.66;99582.53;7286838;19;152756;-50
2021/10/29 05:30:16;;;;;;;;;;;;;;;20.17;68.22;99578.06;7291008;19;153353;-50
2021/10/29 05:32:43;;;;;;;;;;;;;;;20.18;68.82;99588.13;7284556;19;153450;-50
2021/10/29 05:35:10;;;;;;;;;;;;;;;20.16;68.75;99573.66;7285003;19;153828;-50
2021/10/29 05:37:37;;;;;;;;;;;;;;;20.16;68.33;99590.47;7283797;19;152230;-51
2021/10/29 05:40:05;;;;;;;;;;;;;;;20.16;68.69;99570.84;7286066;19;153112;-50
2021/10/29 05:42:33;;;;;;;;;;;;;;;20.16;68.92;99570.03;7285364;19;153245;-49
2021/10/29 05:45:01;;;;;;;;;;;;;;;20.17;68.51;99554.84;7285319;19;151865;-50
2021/10/29 05:47:28;;;;;;;;;;;;;;;20.15;68.47;99557.16;7284166;19;153708;-50
2021/10/29 05:49:56;;;;;;;;;;;;;;;20.17;68.54;99549.25;7282800;19;153460;-51
2021/10/29 05:52:24;;;;;;;;;;;;;;;20.12;68.83;99550.25;7289322;19;152160;-50
2021/10/29 05:57:23;;;;;;;;;;;;;;;20.25;68.74;99545.56;7283276;19;152703;-51
2021/10/29 05:59:51;;;;;;;;;;;;;;;20.31;68.48;99544.19;7283035;19;152878;-51
2021/10/29 06:02:18;;;;;;;;;;;;;;;20.36;69.13;99538.38;7283215;19;153487;-50
2021/10/29 06:04:45;;;;;;;;;;;;;;;20.41;69.12;99535.38;7286064;19;151786;-50
2021/10/29 06:07:12;;;;;;;;;;;;;;;20.47;69.40;99534.03;7283479;19;152570;-50
2021/10/29 06:09:39;;;;;;;;;;;;;;;20.53;69.16;99524.25;7283969;19;153395;-50
2021/10/29 06:12:06;;;;;;;;;;;;;;;20.58;69.51;99521.19;7284167;19;151788;-50
2021/10/29 06:14:34;;;;;;;;;;;;;;;20.66;69.63;99514.72;7290799;19;152765;-50
2021/10/29 06:17:02;;;;;;;;;;;;;;;20.73;69.43;99508.53;7283179;19;152234;-50
2021/10/29 06:19:29;;;;;;;;;;;;;;;20.79;68.96;99518.38;7284619;19;153475;-50
2021/10/29 06:24:24;;;;;;;;;;;;;;;20.94;68.66;99508.50;7284279;19;152687;-50
2021/10/29 06:29:21;;;;;;;;;;;;;;;21.08;68.68;99494.94;7282663;19;155043;-50
2021/10/29 06:31:47;;;;;;;;;;;;;;;21.14;68.25;99494.41;7283528;19;151910;-50
2021/10/29 06:34:15;;;;;;;;;;;;;;;21.22;67.27;99489.84;7284637;19;153185;-50
2021/10/29 06:36:41;;;;;;;;;;;;;;;21.28;67.55;99486.50;7290722;19;153375;-51
2021/10/29 06:39:09;;;;;;;;;;;;;;;21.36;66.90;99486.72;7282504;19;155001;-50
2021/10/29 06:41:36;;;;;;;;;;;;;;;21.43;66.92;99493.41;7280511;19;154145;-51
2021/10/29 06:49:09;;;;;;;;;;;;;;;21.61;66.16;99483.59;7280246;19;154197;-50
2021/10/29 06:59:18;;;;;;;;;;;;;;;21.86;65.43;99470.31;7284467;19;153514;-50
2021/10/29 07:01:53;;;;;;;;;;;;;;;21.93;65.03;99472.59;7281091;19;153438;-51
2021/10/29 07:04:36;;;;;;;;;;;;;;;21.97;65.07;99477.16;7283376;19;152322;-51
2021/10/29 07:12:18;;;;;;;;;;;;;;;22.08;64.21;99454.94;7279949;19;152727;-50
2021/10/29 07:42:14;;;;;;;;;;;;;;;21.95;59.14;99419.59;7295639;19;153691;-52
2021/10/29 07:44:41;;;;;;;;;;;;;;;21.97;60.46;99411.63;7289678;19;151937;-50
2021/10/29 07:47:08;;;;;;;;;;;;;;;21.99;60.82;99421.34;7287072;19;152837;-50
2021/10/29 07:49:35;;;;;;;;;;;;;;;22.00;60.74;99424.97;7287912;19;154689;-50
2021/10/29 07:52:06;;;;;;;;;;;;;;;22.01;61.23;99430.25;7286167;19;152374;-50
2021/10/29 07:54:33;;;;;;;;;;;;;;;22.02;60.85;99431.09;7286253;19;152797;-50
2021/10/29 07:57:00;;;;;;;;;;;;;;;22.00;60.17;99436.22;7286821;19;152244;-51
2021/10/29 07:59:27;;;;;;;;;;;;;;;21.95;60.40;99426.03;7287118;19;152853;-51
2021/10/29 08:01:54;;;;;;;;;;;;;;;21.92;60.01;99421.09;7286710;19;152826;-51
2021/10/29 08:04:22;;;;;;;;;;;;;;;21.90;59.69;99433.88;7295546;19;154518;-51
2021/10/29 08:06:50;;;;;;;;;;;;;;;21.87;59.42;99424.16;7286926;19;152622;-51
2021/10/29 08:09:17;;;;;;;;;;;;;;;21.84;59.37;99426.88;7286130;19;154283;-50
2021/10/29 08:11:43;;;;;;;;;;;;;;;21.83;59.45;99436.47;7286761;19;153900;-51
2021/10/29 08:14:10;;;;;;;;;;;;;;;21.80;59.46;99412.72;7287373;19;153271;-50
2021/10/29 08:16:37;;;;;;;;;;;;;;;21.81;59.08;99416.31;7286728;19;153401;-51
2021/10/29 08:19:04;;;;;;;;;;;;;;;21.80;59.28;99409.06;7286739;19;152342;-50
2021/10/29 08:21:31;;;;;;;;;;;;;;;21.79;59.22;99427.94;7286918;19;153242;-50
2021/10/29 08:23:58;;;;;;;;;;;;;;;21.76;59.24;99414.56;7286875;19;153381;-51
2021/10/29 08:26:25;;;;;;;;;;;;;;;21.76;59.44;99405.34;7295013;19;154231;-50
2021/10/29 08:28:51;;;;;;;;;;;;;;;21.79;59.68;99399.81;7287118;19;153978;-50
2021/10/29 08:31:18;;;;;;;;;;;;;;;21.55;58.12;99403.47;7286644;19;151720;-50
2021/10/29 08:33:45;;;;;;;;;;;;;;;21.24;58.49;99406.06;7284534;19;153468;-57
2021/10/29 08:36:12;;;;;;;;;;;;;;;21.22;57.71;99408.41;7286738;19;153804;-50
2021/10/29 08:38:40;;;;;;;;;;;;;;;21.30;58.86;99405.47;7288113;19;151876;-50
2021/10/29 08:41:27;;;;;;;;;;;;;;;21.37;59.25;99404.91;7285152;19;152779;-50
2021/10/29 08:43:54;;;;;;;;;;;;;;;21.40;59.67;99408.97;7284767;19;154001;-51
2021/10/29 08:46:21;;;;;;;;;;;;;;;21.44;59.31;99409.94;7284947;19;152841;-51
2021/10/29 08:48:48;;;;;;;;;;;;;;;21.45;59.74;99406.75;7293450;19;152385;-51
2021/10/29 08:51:15;;;;;;;;;;;;;;;21.46;59.78;99408.41;7285388;19;152188;-51
2021/10/29 08:53:45;;;;;;;;;;;;;;;21.46;59.77;99396.34;7285407;19;152007;-51
2021/10/29 08:56:13;;;;;;;;;;;;;;;21.46;59.77;99404.78;7286769;19;153229;-51
2021/10/29 08:58:42;;;;;;;;;;;;;;;21.44;59.95;99404.31;7285141;19;152745;-51
2021/10/29 09:01:13;;;;;;;;;;;;;;;21.43;59.61;99399.88;7283246;19;153241;-51
2021/10/29 09:03:45;;;;;;;;;;;;;;;21.43;59.68;99397.06;7285654;19;152674;-51
2021/10/29 09:08:53;;;;;;;;;;;;;;;21.40;59.85;99395.75;7293585;19;153662;-51
2021/10/29 09:31:42;;;;;;;;;;;;;;;21.27;60.18;99396.94;7290091;19;154076;-50
2021/10/29 09:34:11;;;;;;;;;;;;;;;21.24;59.71;99384.41;7282386;19;153482;-51
2021/10/29 09:36:50;;;;;;;;;;;;;;;21.23;59.85;99379.16;7283395;19;154894;-51
2021/10/29 09:39:18;;;;;;;;;;;;;;;21.21;60.40;99379.47;7284020;19;152736;-51
2021/10/29 09:41:46;;;;;;;;;;;;;;;21.17;59.96;99372.94;7284054;19;152227;-51
2021/10/29 09:44:15;;;;;;;;;;;;;;;21.14;60.40;99372.81;7283469;19;153412;-51
2021/10/29 09:46:47;;;;;;;;;;;;;;;21.07;60.77;99364.97;7283679;19;151984;-51
2021/10/29 09:49:17;;;;;;;;;;;;;;;21.04;60.61;99365.66;7286486;19;152769;-51
2021/10/29 09:51:49;;;;;;;;;;;;;;;21.04;60.48;99359.22;7284895;19;154167;-51
2021/10/29 09:54:19;;;;;;;;;;;;;;;21.02;60.79;99356.78;7287249;19;152372;-51
2021/10/29 09:56:53;;;;;;;;;;;;;;;21.02;60.83;99365.19;7283311;19;153546;-51
2021/10/29 09:59:20;;;;;;;;;;;;;;;21.00;60.52;99383.53;7283591;19;151730;-51
2021/10/29 10:01:47;;;;;;;;;;;;;;;20.98;60.74;99371.88;7285461;19;153612;-51
2021/10/29 10:04:14;;;;;;;;;;;;;;;20.96;60.66;99379.81;7281878;19;153301;-51
2021/10/29 10:06:41;;;;;;;;;;;;;;;20.92;61.04;99370.44;7285866;19;151833;-51
2021/10/29 10:09:09;;;;;;;;;;;;;;;20.92;60.76;99362.03;7283688;19;153410;-51
2021/10/29 10:11:38;;;;;;;;;;;;;;;20.90;60.74;99372.75;7283429;19;153310;-51
2021/10/29 10:14:05;;;;;;;;;;;;;;;20.89;60.93;99368.34;7284168;19;152574;-51
2021/10/29 10:16:33;;;;;;;;;;;;;;;20.84;60.94;99367.41;7290606;19;153057;-51
2021/10/29 10:19:00;;;;;;;;;;;;;;;20.84;61.12;99358.16;7282769;19;152079;-51
2021/10/29 10:21:32;;;;;;;;;;;;;;;20.80;60.95;99368.44;7283526;19;153043;-51
2021/10/29 10:24:01;;;;;;;;;;;;;;;20.78;60.69;99365.97;7281717;19;153337;-51
2021/10/29 10:40:21;;;;;;;;;;;;;;;20.76;60.86;99371.13;7283704;19;154193;-51
2021/10/29 10:45:00;;;;;;;;;;;;;;;20.68;60.84;99371.22;7281797;19;153401;-51
2021/10/29 10:47:31;;;;;;;;;;;;;;;20.67;60.91;99376.00;7283034;19;152212;-51
2021/10/29 10:50:01;;;;;;;;;;;;;;;20.65;60.29;99369.94;7282950;19;153345;-50
2021/10/29 10:52:32;;;;;;;;;;;;;;;20.67;60.33;99367.59;7282911;19;153756;-51
2021/10/29 10:55:08;;;;;;;;;;;;;;;20.69;60.55;99367.25;7279652;19;151801;-51
2021/10/29 10:58:02;;;;;;;;;;;;;;;20.68;60.40;99358.00;7281609;19;152055;-51
2021/10/29 11:00:32;;;;;;;;;;;;;;;20.70;60.48;99366.09;7279377;19;153775;-51
2021/10/29 11:03:23;;;;;;;;;;;;;;;20.68;60.60;99362.78;7290962;19;151772;-50
2021/10/29 11:06:00;;;;;;;;;;;;;;;20.66;60.53;99363.16;7282372;19;153286;-51
2021/10/29 11:11:13;;;;;;;;;;;;;;;20.65;60.42;99363.50;7288451;19;153181;-51
2021/10/29 11:13:47;;;;;;;;;;;;;;;20.64;60.59;99368.28;7286329;19;153895;-51
2021/10/29 11:16:17;;;;;;;;;;;;;;;20.60;60.73;99367.34;7287307;19;152354;-51
2021/10/29 11:18:51;;;;;;;;;;;;;;;20.60;60.84;99372.16;7290764;19;152997;-51
2021/10/29 11:21:23;;;;;;;;;;;;;;;20.58;60.69;99371.69;7286662;19;153462;-51
2021/10/29 11:23:52;;;;;;;;;;;;;;;20.56;60.33;99376.81;7295572;19;152037;-51
2021/10/29 11:26:20;;;;;;;;;;;;;;;20.55;60.57;99378.78;7288140;19;153353;-51
2021/10/29 11:28:50;;;;;;;;;;;;;;;20.54;60.40;99382.75;7290325;19;152857;-51
2021/10/29 11:31:21;;;;;;;;;;;;;;;20.55;60.31;99376.00;7286957;19;153489;-51
2021/10/29 11:33:50;;;;;;;;;;;;;;;20.52;60.39;99376.69;7286235;19;154053;-51
2021/10/29 11:36:18;;;;;;;;;;;;;;;20.51;60.13;99369.44;7289280;19;151963;-51
2021/10/29 11:38:47;;;;;;;;;;;;;;;20.50;60.19;99370.59;7287926;19;152614;-51
2021/10/29 11:41:16;;;;;;;;;;;;;;;20.47;60.22;99367.66;7286429;19;154357;-51
2021/10/29 11:43:43;;;;;;;;;;;;;;;20.45;60.61;99364.38;7289094;19;151668;-51
2021/10/29 11:46:11;;;;;;;;;;;;;;;20.49;60.30;99382.19;7294969;19;153430;-51
2021/10/29 11:48:41;;;;;;;;;;;;;;;20.47;60.09;99371.28;7287851;19;151973;-51
2021/10/29 11:51:09;;;;;;;;;;;;;;;20.46;60.49;99372.47;7287527;19;153560;-52
2021/10/29 11:53:39;;;;;;;;;;;;;;;20.46;60.53;99369.66;7285028;19;154090;-50
2021/10/29 11:56:21;;;;;;;;;;;;;;;20.44;60.61;99365.56;7288620;19;151852;-51
2021/10/29 11:59:01;;;;;;;;;;;;;;;20.42;60.69;99377.94;7288080;19;153111;-50
2021/10/29 12:01:37;;;;;;;;;;;;;;;20.42;60.42;99377.94;7281391;19;153387;-51
2021/10/29 12:09:21;;;;;;;;;;;;;;;20.39;60.24;99384.25;7293127;19;153402;-51
2021/10/29 12:11:53;;;;;;;;;;;;;;;20.38;60.65;99378.97;7286689;19;152598;-51
2021/10/29 12:14:20;;;;;;;;;;;;;;;20.36;60.72;99387.72;7281737;19;152827;-51
2021/10/29 12:16:47;;;;;;;;;;;;;;;20.36;60.63;99392.53;7285742;19;152189;-51
2021/10/29 12:19:20;;;;;;;;;;;;;;;20.36;61.05;99387.72;7286816;19;152764;-51
2021/10/29 12:21:49;;;;;;;;;;;;;;;20.39;60.76;99381.47;7282228;19;153950;-51
2021/10/29 12:24:16;;;;;;;;;;;;;;;20.39;60.90;99380.63;7285120;19;152750;-51
2021/10/29 12:26:43;;;;;;;;;;;;;;;20.40;60.81;99382.25;7282948;19;153847;-51
2021/10/29 12:29:13;;;;;;;;;;;;;;;20.36;60.77;99395.31;7284578;19;153814;-51
2021/10/29 12:31:54;;;;;;;;;;;;;;;20.39;60.93;99392.69;7291394;19;155103;-50
2021/10/29 12:52:39;;;;;;;;;;;;;;;20.49;59.83;99399.81;7282861;19;151937;-50
2021/10/29 13:02:56;;;;;;;;;;;;;;;20.43;59.22;99420.84;7283612;19;152261;-51
2021/10/29 13:05:23;;;;;;;;;;;;;;;20.49;59.80;99424.28;7287617;19;151788;-51
2021/10/29 13:07:50;;;;;;;;;;;;;;;20.51;60.16;99428.34;7286837;19;152045;-51
2021/10/29 13:10:18;;;;;;;;;;;;;;;20.55;60.03;99429.31;7281875;19;154432;-51
2021/10/29 13:15:17;;;;;;;;;;;;;;;20.65;59.71;99448.53;7282374;19;153472;-51
2021/10/29 13:17:54;;;;;;;;;;;;;;;20.70;59.54;99451.09;7293449;19;151829;-51
2021/10/29 13:20:45;;;;;;;;;;;;;;;20.74;59.53;99438.03;7284519;19;153641;-51
2021/10/29 13:28:20;;;;;;;;;;;;;;;20.95;59.22;99466.03;7284546;19;152277;-51
2021/10/29 13:53:50;;;;;;;;;;;;;;;21.51;57.64;99531.00;7288295;19;151931;-50
2021/10/29 13:59:14;;;;;;;;;;;;;;;21.62;58.08;99537.81;7262306;19;154176;-51
2021/10/29 14:02:10;;;;;;;;;;;;;;;21.70;58.35;99537.69;7285165;19;151730;-51
2021/10/29 14:28:08;;;;;;;;;;;;;;;21.84;58.18;99553.41;7289912;19;153663;-52
2021/10/29 14:30:10;;;;;;;;;;;;;;;21.89;58.21;99561.59;7283153;19;153459;-52
2021/10/29 14:35:15;;;;;;;;;;;;;;;21.86;57.60;99570.72;7281107;19;152092;-52
2021/10/29 14:40:21;;;;;;;;;;;;;;;21.86;57.17;99556.66;7280453;19;153931;-52
2021/10/29 14:42:53;;;;;;;;;;;;;;;21.82;56.82;99556.56;7282026;19;153027;-52
2021/10/29 14:45:27;;;;;;;;;;;;;;;21.82;57.12;99565.00;7283976;19;153252;-52
2021/10/29 14:48:11;;;;;;;;;;;;;;;21.81;56.66;99565.31;7289163;19;153231;-51
2021/10/29 15:03:26;;;;;;;;;;;;;;;21.75;56.43;99592.88;7283361;19;152395;-52
2021/10/29 15:16:40;;;;;;;;;;;;;;;21.67;57.27;99625.53;7280836;19;151998;-51
2021/10/29 15:29:20;;;;;;;;;;;;;;;21.69;56.69;99656.94;7280336;19;153547;-51
2021/10/29 15:32:17;;;;;;;;;;;;;;;21.69;56.60;99654.13;7288353;19;151588;-51
2021/10/29 15:42:20;;;;;;;;;;;;;;;21.67;56.73;99673.31;7252227;19;155095;-52
2021/10/29 15:44:56;;;;;;;;;;;;;;;21.61;56.48;99669.09;7281416;19;151806;-52
2021/10/29 15:49:55;;;;;;;;;;;;;;;21.59;55.80;99682.66;7280514;19;154110;-52
2021/10/29 15:52:22;;;;;;;;;;;;;;;21.56;56.10;99689.00;7283034;19;151800;-52
2021/10/29 15:54:54;;;;;;;;;;;;;;;21.53;55.76;99683.25;7294215;19;153506;-52
2021/10/29 15:57:25;;;;;;;;;;;;;;;21.50;55.35;99681.09;7284602;19;153071;-52
2021/10/29 16:00:02;;;;;;;;;;;;;;;21.49;55.45;99699.97;7284596;19;153202;-52
2021/10/29 16:17:28;;;;;;;;;;;;;;;21.33;55.65;99718.63;7295107;19;153322;-52
2021/10/29 16:19:55;;;;;;;;;;;;;;;21.28;55.83;99719.66;7283778;19;153744;-52
2021/10/29 16:22:24;;;;;;;;;;;;;;;21.29;55.88;99726.09;7283427;19;152722;-52
2021/10/29 16:27:22;;;;;;;;;;;;;;;21.22;55.97;99723.00;7288067;19;152661;-52
2021/10/29 16:29:50;;;;;;;;;;;;;;;21.19;56.44;99732.97;7284870;19;153300;-52
2021/10/29 16:32:26;;;;;;;;;;;;;;;21.16;56.09;99730.03;7286573;19;151799;-51
2021/10/29 16:34:53;;;;;;;;;;;;;;;21.14;56.35;99738.78;7287580;19;151917;-51
2021/10/29 16:37:19;;;;;;;;;;;;;;;21.14;56.64;99737.94;7280451;19;153315;-52
2021/10/29 16:39:48;;;;;;;;;;;;;;;21.11;56.51;99745.06;7292444;19;151892;-52
2021/10/29 16:42:19;;;;;;;;;;;;;;;21.08;56.20;99740.09;7284205;19;153993;-51
2021/10/29 16:44:47;;;;;;;;;;;;;;;21.05;56.50;99743.59;7285636;19;152178;-52
2021/10/29 16:47:13;;;;;;;;;;;;;;;21.03;56.55;99742.31;7286500;19;153527;-52
2021/10/29 16:49:40;;;;;;;;;;;;;;;21.02;56.71;99751.91;7284972;19;154303;-52
2021/10/29 16:52:07;;;;;;;;;;;;;;;21.02;56.52;99768.75;7286075;19;152054;-52
2021/10/29 16:54:34;;;;;;;;;;;;;;;21.00;56.92;99768.25;7287912;19;152710;-52
2021/10/29 16:57:02;;;;;;;;;;;;;;;20.97;56.56;99772.56;7282733;19;154279;-52